sensor_id;sensor_type;location;lat;lon;timestamp;P1;durP1;ratioP1;P2;durP2;ratioP2
61338;SDS011;47213;52.362;4.606;2023-05-13T00:06:09;13.30;;;8.80;;
61338;SDS011;47213;52.362;4.606;2023-05-13T00:11:09;13.30;;;8.80;;
61338;SDS011;47213;52.362;4.606;2023-05-13T00:16:09;12.50;;;9.00;;
61338;SDS011;47213;52.362;4.606;2023-05-13T00:21:09;12.50;;;9.00;;
61338;SDS011;47213;52.362;4.606;2023-05-13T00:31:09;15.20;;;9.40;;
61338;SDS011;47213;52.362;4.606;2023-05-13T00:36:09;13.40;;;9.70;;
61338;SDS011;47213;52.362;4.606;2023-05-13T00:41:10;13.40;;;9.70;;
61338;SDS011;47213;52.362;4.606;2023-05-13T00:46:09;14.10;;;9.90;;
61338;SDS011;47213;52.362;4.606;2023-05-13T00:51:09;14.10;;;9.90;;
61338;SDS011;47213;52.362;4.606;2023-05-13T00:56:10;14.90;;;10.40;;
61338;SDS011;47213;52.362;4.606;2023-05-13T01:01:18;14.90;;;10.40;;
61338;SDS011;47213;52.362;4.606;2023-05-13T01:11:20;13.40;;;9.70;;
61338;SDS011;47213;52.362;4.606;2023-05-13T01:16:20;14.60;;;9.30;;
61338;SDS011;47213;52.362;4.606;2023-05-13T01:31:11;12.80;;;10.10;;
61338;SDS011;47213;52.362;4.606;2023-05-13T01:36:10;20.80;;;9.40;;
61338;SDS011;47213;52.362;4.606;2023-05-13T01:46:11;14.20;;;9.80;;
61338;SDS011;47213;52.362;4.606;2023-05-13T01:51:10;14.20;;;9.80;;
61338;SDS011;47213;52.362;4.606;2023-05-13T01:56:10;12.80;;;9.20;;
61338;SDS011;47213;52.362;4.606;2023-05-13T02:01:10;12.80;;;9.20;;
61338;SDS011;47213;52.362;4.606;2023-05-13T02:06:10;12.10;;;8.80;;
61338;SDS011;47213;52.362;4.606;2023-05-13T02:16:13;12.40;;;8.10;;
61338;SDS011;47213;52.362;4.606;2023-05-13T02:26:10;12.00;;;7.60;;
61338;SDS011;47213;52.362;4.606;2023-05-13T02:31:10;12.00;;;7.60;;
61338;SDS011;47213;52.362;4.606;2023-05-13T02:36:10;10.70;;;7.00;;
61338;SDS011;47213;52.362;4.606;2023-05-13T02:41:10;10.70;;;7.00;;
61338;SDS011;47213;52.362;4.606;2023-05-13T02:46:10;10.90;;;7.30;;
61338;SDS011;47213;52.362;4.606;2023-05-13T02:56:10;14.10;;;8.50;;
61338;SDS011;47213;52.362;4.606;2023-05-13T03:01:10;14.10;;;8.50;;
61338;SDS011;47213;52.362;4.606;2023-05-13T03:06:10;12.90;;;9.40;;
61338;SDS011;47213;52.362;4.606;2023-05-13T03:11:11;12.90;;;9.40;;
61338;SDS011;47213;52.362;4.606;2023-05-13T03:21:10;15.50;;;10.10;;
61338;SDS011;47213;52.362;4.606;2023-05-13T03:26:10;15.90;;;12.30;;
61338;SDS011;47213;52.362;4.606;2023-05-13T03:31:11;15.90;;;12.30;;
61338;SDS011;47213;52.362;4.606;2023-05-13T03:36:10;16.80;;;13.10;;
61338;SDS011;47213;52.362;4.606;2023-05-13T03:41:10;16.80;;;13.10;;
61338;SDS011;47213;52.362;4.606;2023-05-13T03:46:10;21.00;;;14.90;;
61338;SDS011;47213;52.362;4.606;2023-05-13T03:56:10;22.20;;;15.90;;
61338;SDS011;47213;52.362;4.606;2023-05-13T04:16:10;23.20;;;17.30;;
61338;SDS011;47213;52.362;4.606;2023-05-13T04:21:10;23.20;;;17.30;;
61338;SDS011;47213;52.362;4.606;2023-05-13T04:26:10;25.50;;;18.30;;
61338;SDS011;47213;52.362;4.606;2023-05-13T04:31:10;25.50;;;18.30;;
61338;SDS011;47213;52.362;4.606;2023-05-13T04:46:10;25.50;;;18.00;;
61338;SDS011;47213;52.362;4.606;2023-05-13T04:51:10;25.50;;;18.00;;
61338;SDS011;47213;52.362;4.606;2023-05-13T04:56:10;24.10;;;18.40;;
61338;SDS011;47213;52.362;4.606;2023-05-13T05:01:10;24.10;;;18.40;;
61338;SDS011;47213;52.362;4.606;2023-05-13T05:06:10;26.00;;;18.30;;
61338;SDS011;47213;52.362;4.606;2023-05-13T05:11:10;26.00;;;18.30;;
61338;SDS011;47213;52.362;4.606;2023-05-13T05:16:10;25.50;;;18.00;;
61338;SDS011;47213;52.362;4.606;2023-05-13T05:21:11;25.50;;;18.00;;
61338;SDS011;47213;52.362;4.606;2023-05-13T05:31:10;23.10;;;16.10;;
61338;SDS011;47213;52.362;4.606;2023-05-13T05:41:10;21.00;;;15.30;;
61338;SDS011;47213;52.362;4.606;2023-05-13T05:51:10;20.10;;;15.10;;
61338;SDS011;47213;52.362;4.606;2023-05-13T06:01:10;20.90;;;13.90;;
61338;SDS011;47213;52.362;4.606;2023-05-13T06:21:10;19.30;;;13.90;;
61338;SDS011;47213;52.362;4.606;2023-05-13T06:26:10;17.30;;;12.50;;
61338;SDS011;47213;52.362;4.606;2023-05-13T06:31:10;17.30;;;12.50;;
61338;SDS011;47213;52.362;4.606;2023-05-13T06:41:10;15.90;;;12.00;;
61338;SDS011;47213;52.362;4.606;2023-05-13T07:01:10;15.90;;;11.10;;
61338;SDS011;47213;52.362;4.606;2023-05-13T07:11:10;16.80;;;10.00;;
61338;SDS011;47213;52.362;4.606;2023-05-13T07:21:12;15.90;;;9.40;;
61338;SDS011;47213;52.362;4.606;2023-05-13T07:31:11;14.10;;;7.90;;
61338;SDS011;47213;52.362;4.606;2023-05-13T07:36:11;11.70;;;7.00;;
61338;SDS011;47213;52.362;4.606;2023-05-13T07:41:10;11.70;;;7.00;;
61338;SDS011;47213;52.362;4.606;2023-05-13T07:46:11;10.60;;;6.90;;
61338;SDS011;47213;52.362;4.606;2023-05-13T07:51:11;10.60;;;6.90;;
61338;SDS011;47213;52.362;4.606;2023-05-13T07:56:11;12.90;;;7.30;;
61338;SDS011;47213;52.362;4.606;2023-05-13T08:01:11;12.90;;;7.30;;
61338;SDS011;47213;52.362;4.606;2023-05-13T08:06:11;13.40;;;6.90;;
61338;SDS011;47213;52.362;4.606;2023-05-13T08:11:11;13.40;;;6.90;;
61338;SDS011;47213;52.362;4.606;2023-05-13T08:16:11;10.30;;;6.20;;
61338;SDS011;47213;52.362;4.606;2023-05-13T08:21:11;10.30;;;6.20;;
61338;SDS011;47213;52.362;4.606;2023-05-13T08:26:11;10.70;;;5.30;;
61338;SDS011;47213;52.362;4.606;2023-05-13T08:31:11;10.70;;;5.30;;
61338;SDS011;47213;52.362;4.606;2023-05-13T08:36:11;9.30;;;5.00;;
61338;SDS011;47213;52.362;4.606;2023-05-13T08:41:11;9.30;;;5.00;;
61338;SDS011;47213;52.362;4.606;2023-05-13T08:51:11;10.10;;;4.70;;
61338;SDS011;47213;52.362;4.606;2023-05-13T09:01:11;8.70;;;4.50;;
61338;SDS011;47213;52.362;4.606;2023-05-13T09:11:11;9.10;;;4.90;;
61338;SDS011;47213;52.362;4.606;2023-05-13T09:16:11;8.30;;;4.70;;
61338;SDS011;47213;52.362;4.606;2023-05-13T09:21:21;8.30;;;4.70;;
61338;SDS011;47213;52.362;4.606;2023-05-13T09:31:11;8.80;;;4.80;;
61338;SDS011;47213;52.362;4.606;2023-05-13T09:36:11;10.30;;;5.20;;
61338;SDS011;47213;52.362;4.606;2023-05-13T09:41:11;10.30;;;5.20;;
61338;SDS011;47213;52.362;4.606;2023-05-13T09:46:11;10.70;;;4.80;;
61338;SDS011;47213;52.362;4.606;2023-05-13T09:51:11;10.70;;;4.80;;
61338;SDS011;47213;52.362;4.606;2023-05-13T09:56:11;7.80;;;3.90;;
61338;SDS011;47213;52.362;4.606;2023-05-13T10:01:11;7.80;;;3.90;;
61338;SDS011;47213;52.362;4.606;2023-05-13T10:06:12;7.80;;;3.90;;
61338;SDS011;47213;52.362;4.606;2023-05-13T10:11:11;7.10;;;3.50;;
61338;SDS011;47213;52.362;4.606;2023-05-13T10:16:11;7.10;;;3.50;;
61338;SDS011;47213;52.362;4.606;2023-05-13T10:21:11;7.40;;;3.30;;
61338;SDS011;47213;52.362;4.606;2023-05-13T10:26:11;7.40;;;3.30;;
61338;SDS011;47213;52.362;4.606;2023-05-13T10:31:11;5.70;;;2.70;;
61338;SDS011;47213;52.362;4.606;2023-05-13T10:46:11;7.90;;;2.90;;
61338;SDS011;47213;52.362;4.606;2023-05-13T10:51:13;9.00;;;2.90;;
61338;SDS011;47213;52.362;4.606;2023-05-13T10:56:11;9.00;;;2.90;;
61338;SDS011;47213;52.362;4.606;2023-05-13T11:01:15;7.40;;;2.80;;
61338;SDS011;47213;52.362;4.606;2023-05-13T11:06:15;7.40;;;2.80;;
61338;SDS011;47213;52.362;4.606;2023-05-13T11:16:12;7.30;;;2.90;;
61338;SDS011;47213;52.362;4.606;2023-05-13T11:21:11;10.60;;;3.10;;
61338;SDS011;47213;52.362;4.606;2023-05-13T11:26:13;10.60;;;3.10;;
61338;SDS011;47213;52.362;4.606;2023-05-13T11:31:15;7.50;;;3.10;;
61338;SDS011;47213;52.362;4.606;2023-05-13T11:36:11;7.50;;;3.10;;
61338;SDS011;47213;52.362;4.606;2023-05-13T11:46:18;9.10;;;3.40;;
61338;SDS011;47213;52.362;4.606;2023-05-13T11:51:11;10.30;;;3.50;;
61338;SDS011;47213;52.362;4.606;2023-05-13T11:56:11;10.30;;;3.50;;
61338;SDS011;47213;52.362;4.606;2023-05-13T12:01:13;12.20;;;4.70;;
61338;SDS011;47213;52.362;4.606;2023-05-13T12:06:12;12.20;;;4.70;;
61338;SDS011;47213;52.362;4.606;2023-05-13T12:11:12;9.00;;;4.40;;
61338;SDS011;47213;52.362;4.606;2023-05-13T12:16:11;9.00;;;4.40;;
61338;SDS011;47213;52.362;4.606;2023-05-13T12:21:13;11.20;;;5.60;;
61338;SDS011;47213;52.362;4.606;2023-05-13T12:26:11;11.20;;;5.60;;
61338;SDS011;47213;52.362;4.606;2023-05-13T12:31:15;10.30;;;5.20;;
61338;SDS011;47213;52.362;4.606;2023-05-13T13:06:12;10.80;;;6.00;;
61338;SDS011;47213;52.362;4.606;2023-05-13T13:11:11;10.10;;;5.80;;
61338;SDS011;47213;52.362;4.606;2023-05-13T13:21:11;10.10;;;5.60;;
61338;SDS011;47213;52.362;4.606;2023-05-13T13:26:11;10.10;;;5.60;;
61338;SDS011;47213;52.362;4.606;2023-05-13T13:31:11;9.30;;;6.00;;
61338;SDS011;47213;52.362;4.606;2023-05-13T13:41:12;11.20;;;6.30;;
61338;SDS011;47213;52.362;4.606;2023-05-13T13:51:12;12.00;;;6.00;;
61338;SDS011;47213;52.362;4.606;2023-05-13T13:56:12;12.00;;;6.00;;
61338;SDS011;47213;52.362;4.606;2023-05-13T14:11:12;16.20;;;6.10;;
61338;SDS011;47213;52.362;4.606;2023-05-13T14:16:12;16.20;;;6.10;;
61338;SDS011;47213;52.362;4.606;2023-05-13T14:21:12;16.30;;;6.70;;
61338;SDS011;47213;52.362;4.606;2023-05-13T14:26:12;16.30;;;6.70;;
61338;SDS011;47213;52.362;4.606;2023-05-13T14:31:12;16.70;;;6.40;;
61338;SDS011;47213;52.362;4.606;2023-05-13T14:36:12;16.70;;;6.40;;
61338;SDS011;47213;52.362;4.606;2023-05-13T14:41:12;15.70;;;6.30;;
61338;SDS011;47213;52.362;4.606;2023-05-13T14:46:12;15.70;;;6.30;;
61338;SDS011;47213;52.362;4.606;2023-05-13T14:51:12;16.20;;;6.80;;
61338;SDS011;47213;52.362;4.606;2023-05-13T14:56:12;16.20;;;6.80;;
61338;SDS011;47213;52.362;4.606;2023-05-13T15:06:12;14.50;;;6.90;;
61338;SDS011;47213;52.362;4.606;2023-05-13T15:16:12;14.30;;;6.30;;
61338;SDS011;47213;52.362;4.606;2023-05-13T15:26:12;12.60;;;6.30;;
61338;SDS011;47213;52.362;4.606;2023-05-13T15:31:12;18.10;;;9.60;;
61338;SDS011;47213;52.362;4.606;2023-05-13T15:41:12;14.10;;;6.20;;
61338;SDS011;47213;52.362;4.606;2023-05-13T15:46:12;14.10;;;6.20;;
61338;SDS011;47213;52.362;4.606;2023-05-13T15:51:12;15.90;;;6.20;;
61338;SDS011;47213;52.362;4.606;2023-05-13T15:56:12;15.90;;;6.20;;
61338;SDS011;47213;52.362;4.606;2023-05-13T16:01:12;16.00;;;7.70;;
61338;SDS011;47213;52.362;4.606;2023-05-13T16:06:12;16.00;;;7.70;;
61338;SDS011;47213;52.362;4.606;2023-05-13T16:16:12;15.50;;;6.80;;
61338;SDS011;47213;52.362;4.606;2023-05-13T16:21:12;18.60;;;7.00;;
61338;SDS011;47213;52.362;4.606;2023-05-13T16:26:12;18.60;;;7.00;;
61338;SDS011;47213;52.362;4.606;2023-05-13T16:36:12;15.10;;;7.00;;
61338;SDS011;47213;52.362;4.606;2023-05-13T16:41:12;14.60;;;7.40;;
61338;SDS011;47213;52.362;4.606;2023-05-13T16:46:12;14.60;;;7.40;;
61338;SDS011;47213;52.362;4.606;2023-05-13T16:51:12;17.80;;;7.80;;
61338;SDS011;47213;52.362;4.606;2023-05-13T17:01:12;21.00;;;8.00;;
61338;SDS011;47213;52.362;4.606;2023-05-13T17:06:12;21.00;;;8.00;;
61338;SDS011;47213;52.362;4.606;2023-05-13T17:11:12;19.40;;;8.50;;
61338;SDS011;47213;52.362;4.606;2023-05-13T17:16:12;19.40;;;8.50;;
61338;SDS011;47213;52.362;4.606;2023-05-13T17:21:12;22.60;;;9.80;;
61338;SDS011;47213;52.362;4.606;2023-05-13T17:26:12;22.60;;;9.80;;
61338;SDS011;47213;52.362;4.606;2023-05-13T17:31:12;20.90;;;9.60;;
61338;SDS011;47213;52.362;4.606;2023-05-13T17:41:12;19.40;;;9.30;;
61338;SDS011;47213;52.362;4.606;2023-05-13T17:46:12;19.40;;;9.30;;
61338;SDS011;47213;52.362;4.606;2023-05-13T17:51:12;21.00;;;9.10;;
61338;SDS011;47213;52.362;4.606;2023-05-13T18:01:12;20.10;;;9.60;;
61338;SDS011;47213;52.362;4.606;2023-05-13T18:06:12;20.10;;;9.60;;
61338;SDS011;47213;52.362;4.606;2023-05-13T18:11:12;15.80;;;7.60;;
61338;SDS011;47213;52.362;4.606;2023-05-13T18:21:12;14.60;;;7.40;;
61338;SDS011;47213;52.362;4.606;2023-05-13T18:31:12;12.80;;;7.30;;
61338;SDS011;47213;52.362;4.606;2023-05-13T18:36:12;12.80;;;7.30;;
61338;SDS011;47213;52.362;4.606;2023-05-13T18:46:12;14.80;;;8.20;;
61338;SDS011;47213;52.362;4.606;2023-05-13T18:51:12;16.20;;;10.00;;
61338;SDS011;47213;52.362;4.606;2023-05-13T18:56:12;16.20;;;10.00;;
61338;SDS011;47213;52.362;4.606;2023-05-13T19:01:13;14.20;;;10.10;;
61338;SDS011;47213;52.362;4.606;2023-05-13T19:06:12;14.20;;;10.10;;
61338;SDS011;47213;52.362;4.606;2023-05-13T19:16:13;21.30;;;11.50;;
61338;SDS011;47213;52.362;4.606;2023-05-13T19:21:12;17.60;;;11.50;;
61338;SDS011;47213;52.362;4.606;2023-05-13T19:26:13;17.60;;;11.50;;
61338;SDS011;47213;52.362;4.606;2023-05-13T19:31:12;14.90;;;10.50;;
61338;SDS011;47213;52.362;4.606;2023-05-13T19:41:13;14.80;;;10.70;;
61338;SDS011;47213;52.362;4.606;2023-05-13T19:46:13;14.80;;;10.70;;
61338;SDS011;47213;52.362;4.606;2023-05-13T19:51:13;14.90;;;10.10;;
61338;SDS011;47213;52.362;4.606;2023-05-13T19:56:13;14.90;;;10.10;;
61338;SDS011;47213;52.362;4.606;2023-05-13T20:01:13;15.90;;;10.60;;
61338;SDS011;47213;52.362;4.606;2023-05-13T20:06:13;15.90;;;10.60;;
61338;SDS011;47213;52.362;4.606;2023-05-13T20:11:13;15.70;;;10.90;;
61338;SDS011;47213;52.362;4.606;2023-05-13T20:21:13;17.10;;;11.60;;
61338;SDS011;47213;52.362;4.606;2023-05-13T20:31:13;17.40;;;11.60;;
61338;SDS011;47213;52.362;4.606;2023-05-13T20:36:13;17.40;;;11.60;;
61338;SDS011;47213;52.362;4.606;2023-05-13T20:41:14;17.00;;;12.00;;
61338;SDS011;47213;52.362;4.606;2023-05-13T20:56:13;18.10;;;13.30;;
61338;SDS011;47213;52.362;4.606;2023-05-13T21:01:13;19.40;;;13.30;;
61338;SDS011;47213;52.362;4.606;2023-05-13T21:06:13;19.40;;;13.30;;
61338;SDS011;47213;52.362;4.606;2023-05-13T21:11:13;18.70;;;14.30;;
61338;SDS011;47213;52.362;4.606;2023-05-13T21:16:13;18.70;;;14.30;;
61338;SDS011;47213;52.362;4.606;2023-05-13T21:26:13;20.70;;;14.80;;
61338;SDS011;47213;52.362;4.606;2023-05-13T21:31:13;20.10;;;15.00;;
61338;SDS011;47213;52.362;4.606;2023-05-13T21:41:13;19.60;;;14.70;;
61338;SDS011;47213;52.362;4.606;2023-05-13T21:56:13;23.10;;;14.50;;
61338;SDS011;47213;52.362;4.606;2023-05-13T22:01:13;18.50;;;13.60;;
61338;SDS011;47213;52.362;4.606;2023-05-13T22:21:13;17.30;;;12.70;;
61338;SDS011;47213;52.362;4.606;2023-05-13T22:31:14;20.40;;;13.30;;
61338;SDS011;47213;52.362;4.606;2023-05-13T22:36:13;20.40;;;13.30;;
61338;SDS011;47213;52.362;4.606;2023-05-13T22:41:13;19.10;;;12.50;;
61338;SDS011;47213;52.362;4.606;2023-05-13T22:51:13;19.40;;;12.80;;
61338;SDS011;47213;52.362;4.606;2023-05-13T23:01:14;19.70;;;12.90;;
61338;SDS011;47213;52.362;4.606;2023-05-13T23:06:13;19.70;;;12.90;;
61338;SDS011;47213;52.362;4.606;2023-05-13T23:11:13;20.20;;;13.80;;
61338;SDS011;47213;52.362;4.606;2023-05-13T23:21:13;18.60;;;12.80;;
61338;SDS011;47213;52.362;4.606;2023-05-13T23:41:13;18.50;;;12.70;;
61338;SDS011;47213;52.362;4.606;2023-05-13T23:46:13;18.50;;;12.70;;
61338;SDS011;47213;52.362;4.606;2023-05-13T23:51:13;18.30;;;12.60;;
